Terminal Aerodrome Forecast
Issued by NWS Cleveland, OH

Home | Current Version | Previous Version | Graphics & Text | Print | Product List | Glossary Off
Versions: 1 2 3 4 5 6 7 8 9 10 11 12 13 14 15 16 17

569
FTUS41 KCLE 100537
TAFYNG
TAF
KYNG 100537Z 1006/1106 26012KT 4SM -SN OVC012
      TEMPO 1006/1009 2SM -SN OVC022
     FM100900 26012KT P6SM -SHSN OVC025
     FM101600 25012KT 5SM -SHSN OVC025
     FM101900 27012KT 2SM -SN OVC018
     FM110300 28012KT 5SM -SHSN BKN028=

USA.gov is the U.S. government's official web portal to all federal, state and local government web resources and services.